createdAt,value
2023-04-18T00:01:40.504Z,7.90
2023-04-18T00:04:10.502Z,7.90
2023-04-18T00:06:38.530Z,7.90
2023-04-18T00:09:06.412Z,7.90
2023-04-18T00:11:34.444Z,8.00
2023-04-18T00:14:03.134Z,7.90
2023-04-18T00:16:33.033Z,8.00
2023-04-18T00:19:02.222Z,8.00
2023-04-18T00:21:30.049Z,7.90
2023-04-18T00:23:57.887Z,7.80
2023-04-18T00:26:25.750Z,7.70
2023-04-18T00:28:53.524Z,7.70
2023-04-18T00:31:21.480Z,7.80
2023-04-18T00:33:49.300Z,7.80
2023-04-18T00:36:18.427Z,7.70
2023-04-18T00:38:46.241Z,7.70
2023-04-18T00:41:14.054Z,7.70
2023-04-18T00:43:41.859Z,7.70
2023-04-18T00:46:10.899Z,7.70
2023-04-18T00:48:40.005Z,7.80
2023-04-18T00:51:08.492Z,7.70
2023-04-18T00:53:38.512Z,7.70
2023-04-18T00:56:07.408Z,7.70
2023-04-18T00:58:35.797Z,7.80
2023-04-18T01:01:03.811Z,7.70
2023-04-18T01:03:32.778Z,7.80
2023-04-18T01:06:01.084Z,7.80
2023-04-18T01:08:29.295Z,7.70
2023-04-18T01:10:58.483Z,7.80
2023-04-18T01:13:26.231Z,7.80
2023-04-18T01:15:54.987Z,7.80
2023-04-18T01:18:22.916Z,7.70
2023-04-18T01:20:52.697Z,7.70
2023-04-18T01:23:21.210Z,7.70
2023-04-18T01:25:50.443Z,7.80
2023-04-18T01:28:19.178Z,7.80
2023-04-18T01:30:47.057Z,7.80
2023-04-18T01:33:15.132Z,7.80
2023-04-18T01:35:42.904Z,7.80
2023-04-18T01:38:10.753Z,7.80
2023-04-18T01:40:38.545Z,7.80
2023-04-18T01:43:07.674Z,7.70
2023-04-18T01:45:35.543Z,7.70
2023-04-18T01:48:03.371Z,7.70
2023-04-18T01:50:31.152Z,7.60
2023-04-18T01:52:59.164Z,7.60
2023-04-18T01:55:26.948Z,7.60
2023-04-18T01:57:54.761Z,7.60
2023-04-18T02:00:24.480Z,7.60
2023-04-18T02:02:52.405Z,7.60
2023-04-18T02:05:20.360Z,7.60
2023-04-18T02:07:50.154Z,7.60
2023-04-18T02:10:18.960Z,7.50
2023-04-18T02:12:46.802Z,7.60
2023-04-18T02:15:14.643Z,7.50
2023-04-18T02:17:43.800Z,7.50
2023-04-18T02:20:13.208Z,7.60
2023-04-18T02:22:41.062Z,7.50
2023-04-18T02:25:09.663Z,7.60
2023-04-18T02:27:37.677Z,7.50
2023-04-18T02:30:06.242Z,7.50
2023-04-18T02:32:34.104Z,7.40
2023-04-18T02:35:03.331Z,7.30
2023-04-18T02:37:31.267Z,7.40
2023-04-18T02:39:59.072Z,7.40
2023-04-18T02:42:26.825Z,7.40
2023-04-18T02:44:54.835Z,7.40
2023-04-18T02:47:22.610Z,7.40
2023-04-18T02:49:50.793Z,7.30
2023-04-18T02:52:19.962Z,7.40
2023-04-18T02:54:47.827Z,7.50
2023-04-18T02:57:15.596Z,7.40
2023-04-18T02:59:43.371Z,7.40
2023-04-18T03:02:11.215Z,7.40
2023-04-18T03:04:39.106Z,7.30
2023-04-18T03:07:06.901Z,7.30
2023-04-18T03:09:36.275Z,7.30
2023-04-18T03:12:04.073Z,7.20
2023-04-18T03:14:31.903Z,7.20
2023-04-18T03:16:59.739Z,7.20
2023-04-18T03:19:27.553Z,7.20
2023-04-18T03:21:55.607Z,7.20
2023-04-18T03:24:23.356Z,7.20
2023-04-18T03:26:52.508Z,7.20
2023-04-18T03:29:20.322Z,7.20
2023-04-18T03:31:48.210Z,7.10
2023-04-18T03:34:16.006Z,7.10
2023-04-18T03:36:45.881Z,7.10
2023-04-18T03:39:15.019Z,7.10
2023-04-18T03:41:42.823Z,7.10
2023-04-18T03:44:12.576Z,7.20
2023-04-18T03:46:40.831Z,7.10
2023-04-18T03:49:08.611Z,7.10
2023-04-18T03:51:45.131Z,7.10
2023-04-18T03:54:13.140Z,7.10
2023-04-18T03:56:41.777Z,7.10
2023-04-18T03:59:11.115Z,7.00
2023-04-18T04:01:39.399Z,7.00
2023-04-18T04:04:09.013Z,7.10
2023-04-18T04:06:43.233Z,7.10
2023-04-18T04:09:11.058Z,7.10
2023-04-18T04:11:39.537Z,7.00
2023-04-18T04:14:07.388Z,7.00
2023-04-18T04:16:36.571Z,7.10
2023-04-18T04:19:04.918Z,7.10
2023-04-18T04:21:32.706Z,7.10
2023-04-18T04:24:01.246Z,7.10
2023-04-18T04:26:30.581Z,7.10
2023-04-18T04:28:58.457Z,7.10
2023-04-18T04:31:26.238Z,7.10
2023-04-18T04:33:55.427Z,7.00
2023-04-18T04:36:27.103Z,7.10
2023-04-18T04:38:55.132Z,7.10
2023-04-18T04:41:24.478Z,7.10
2023-04-18T04:43:53.135Z,7.00
2023-04-18T04:46:21.031Z,7.00
2023-04-18T04:48:49.606Z,7.00
2023-04-18T04:51:18.814Z,7.10
2023-04-18T04:53:46.581Z,7.00
2023-04-18T04:56:14.525Z,7.10
2023-04-18T04:58:42.335Z,7.10
2023-04-18T05:01:10.563Z,7.00
2023-04-18T05:03:38.601Z,7.00
2023-04-18T05:06:07.201Z,7.10
2023-04-18T05:08:36.335Z,7.10
2023-04-18T05:11:04.416Z,7.00
2023-04-18T05:13:32.195Z,7.10
2023-04-18T05:16:00.418Z,7.10
2023-04-18T05:18:28.265Z,7.00
2023-04-18T05:20:56.805Z,7.10
2023-04-18T05:23:24.728Z,7.20
2023-04-18T05:25:53.843Z,7.10
2023-04-18T05:28:23.308Z,7.10
2023-04-18T05:30:51.903Z,7.10
2023-04-18T05:33:21.559Z,7.30
2023-04-18T05:35:49.416Z,7.30
2023-04-18T05:38:17.196Z,7.30
2023-04-18T05:40:44.964Z,7.40
2023-04-18T05:43:14.149Z,7.50
2023-04-18T05:45:41.908Z,7.40
2023-04-18T05:48:09.758Z,7.30
2023-04-18T05:50:37.715Z,7.40
2023-04-18T05:53:05.613Z,7.40
2023-04-18T05:55:34.226Z,7.60
2023-04-18T05:58:02.132Z,7.60
2023-04-18T06:00:31.494Z,7.50
2023-04-18T06:02:59.451Z,7.60
2023-04-18T06:05:27.918Z,7.60
2023-04-18T06:07:55.995Z,7.80
2023-04-18T06:10:23.791Z,7.90
2023-04-18T06:12:51.646Z,7.90
2023-04-18T06:15:19.835Z,8.00
2023-04-18T06:17:48.963Z,8.00
2023-04-18T06:20:17.218Z,8.10
2023-04-18T06:22:44.986Z,8.10
2023-04-18T06:25:12.767Z,8.20
2023-04-18T06:27:40.651Z,8.30
2023-04-18T06:30:09.595Z,8.30
2023-04-18T06:32:37.393Z,8.30
2023-04-18T06:35:07.477Z,8.50
2023-04-18T06:37:35.367Z,8.60
2023-04-18T06:40:03.202Z,8.80
2023-04-18T06:42:31.071Z,9.00
2023-04-18T06:44:58.861Z,9.00
2023-04-18T06:47:26.695Z,9.00
2023-04-18T06:49:54.770Z,8.90
2023-04-18T06:52:23.968Z,8.80
2023-04-18T06:54:51.735Z,8.70
2023-04-18T06:57:19.632Z,8.70
2023-04-18T06:59:47.444Z,8.80
2023-04-18T07:02:15.366Z,8.90
2023-04-18T07:04:43.296Z,8.90
2023-04-18T07:07:11.104Z,9.00
2023-04-18T07:09:40.257Z,9.10
2023-04-18T07:12:08.169Z,9.20
2023-04-18T07:14:36.008Z,9.20
2023-04-18T07:17:03.879Z,9.30
2023-04-18T07:19:31.756Z,9.60
2023-04-18T07:21:59.538Z,9.60
2023-04-18T07:24:27.372Z,10.00
2023-04-18T07:26:56.977Z,10.10
2023-04-18T07:29:24.830Z,10.20
2023-04-18T07:31:53.036Z,10.20
2023-04-18T07:34:21.956Z,10.30
2023-04-18T07:36:49.967Z,10.30
2023-04-18T07:39:17.765Z,10.10
2023-04-18T07:41:45.596Z,10.10
2023-04-18T07:44:14.958Z,10.20
2023-04-18T07:46:42.977Z,10.30
2023-04-18T07:49:10.915Z,10.20
2023-04-18T07:51:38.801Z,9.90
2023-04-18T07:54:06.671Z,10.00
2023-04-18T07:56:34.527Z,10.10
2023-04-18T07:59:02.552Z,10.00
2023-04-18T08:01:31.785Z,9.90
2023-04-18T08:04:01.921Z,9.90
2023-04-18T08:06:30.216Z,9.80
2023-04-18T08:08:58.909Z,9.80
2023-04-18T08:11:26.909Z,9.90
2023-04-18T08:13:54.718Z,10.00
2023-04-18T08:16:22.581Z,9.90
2023-04-18T08:18:51.815Z,10.20
2023-04-18T08:21:20.178Z,10.00
2023-04-18T08:23:48.062Z,10.00
2023-04-18T08:26:15.940Z,9.90
2023-04-18T08:28:46.302Z,10.10
2023-04-18T08:31:15.230Z,10.10
2023-04-18T08:33:43.247Z,10.10
2023-04-18T08:36:12.927Z,10.00
2023-04-18T08:38:40.693Z,9.90
2023-04-18T08:41:09.370Z,9.90
2023-04-18T08:43:38.985Z,10.00
2023-04-18T08:46:07.868Z,10.00
2023-04-18T08:48:36.632Z,9.90
2023-04-18T08:51:04.915Z,9.80
2023-04-18T08:53:35.128Z,9.80
2023-04-18T08:56:03.429Z,10.00
2023-04-18T08:58:33.535Z,9.90
2023-04-18T09:01:01.345Z,9.80
2023-04-18T09:03:39.476Z,9.80
2023-04-18T09:06:09.210Z,10.00
2023-04-18T09:08:38.354Z,10.10
2023-04-18T09:11:22.667Z,9.90
2023-04-18T09:13:50.501Z,10.00
2023-04-18T09:16:19.363Z,10.00
2023-04-18T09:19:10.818Z,10.10
2023-04-18T09:21:40.663Z,10.10
2023-04-18T09:24:26.295Z,10.20
2023-04-18T09:26:55.998Z,10.20
2023-04-18T09:29:42.364Z,10.50
2023-04-18T09:32:10.364Z,10.50
2023-04-18T09:34:43.567Z,10.60
2023-04-18T09:37:12.428Z,10.60
2023-04-18T09:39:43.486Z,10.70
2023-04-18T09:42:12.349Z,10.80
2023-04-18T09:44:58.665Z,10.70
2023-04-18T09:47:27.987Z,10.60
2023-04-18T09:49:56.264Z,10.50
2023-04-18T09:52:25.755Z,10.50
2023-04-18T09:54:59.263Z,10.60
2023-04-18T09:57:29.799Z,10.60
2023-04-18T10:00:06.652Z,10.60
2023-04-18T10:02:39.595Z,10.70
2023-04-18T10:05:09.229Z,10.70
2023-04-18T10:07:37.747Z,10.80
2023-04-18T10:10:08.285Z,10.70
2023-04-18T10:12:37.673Z,10.60
2023-04-18T10:15:07.304Z,10.60
2023-04-18T10:17:52.569Z,10.70
2023-04-18T10:20:29.565Z,10.60
2023-04-18T10:22:58.638Z,10.60
2023-04-18T10:25:50.190Z,11.00
2023-04-18T10:28:18.937Z,11.20
2023-04-18T10:31:02.905Z,11.10
2023-04-18T10:33:41.001Z,11.10
2023-04-18T10:36:19.757Z,11.20
2023-04-18T10:38:52.826Z,11.40
2023-04-18T10:41:26.822Z,11.60
2023-04-18T10:44:19.298Z,11.60
2023-04-18T10:47:22.773Z,11.50
2023-04-18T10:50:06.575Z,11.40
2023-04-18T10:52:35.684Z,11.40
2023-04-18T10:55:11.249Z,11.20
2023-04-18T10:57:44.837Z,11.20
2023-04-18T11:00:15.424Z,11.10
2023-04-18T11:02:51.015Z,11.20
2023-04-18T11:05:24.295Z,11.30
2023-04-18T11:07:52.991Z,11.30
2023-04-18T11:10:22.635Z,11.10
2023-04-18T11:12:52.700Z,11.20
2023-04-18T11:15:22.456Z,11.10
2023-04-18T11:17:58.875Z,11.20
2023-04-18T11:20:26.979Z,11.10
2023-04-18T11:22:56.424Z,11.10
2023-04-18T11:25:28.831Z,11.10
2023-04-18T11:28:01.015Z,11.10
2023-04-18T11:30:31.266Z,11.20
2023-04-18T11:32:59.200Z,11.30
2023-04-18T11:35:27.316Z,11.30
2023-04-18T11:37:56.164Z,11.40
2023-04-18T11:40:24.206Z,11.30
2023-04-18T11:42:51.996Z,11.40
2023-04-18T11:45:21.176Z,11.50
2023-04-18T11:47:49.064Z,11.80
2023-04-18T11:50:17.022Z,11.80
2023-04-18T11:52:50.095Z,11.80
2023-04-18T11:55:21.303Z,11.80
2023-04-18T11:57:53.424Z,11.70
2023-04-18T12:00:33.756Z,11.60
2023-04-18T12:03:04.456Z,11.50
2023-04-18T12:05:34.040Z,11.50
2023-04-18T12:08:09.803Z,11.50
2023-04-18T12:10:37.684Z,11.40
2023-04-18T12:13:09.029Z,11.60
2023-04-18T12:15:41.648Z,11.80
2023-04-18T12:18:09.738Z,12.00
2023-04-18T12:20:39.120Z,12.10
2023-04-18T12:23:07.830Z,12.30
2023-04-18T12:25:36.262Z,12.30
2023-04-18T12:28:13.795Z,12.40
2023-04-18T12:30:43.732Z,12.30
2023-04-18T12:33:12.509Z,12.20
2023-04-18T12:35:40.367Z,12.30
2023-04-18T12:38:08.184Z,12.30
2023-04-18T12:40:36.080Z,12.20
2023-04-18T12:43:04.075Z,12.30
2023-04-18T12:45:32.063Z,12.50
2023-04-18T12:48:01.381Z,12.60
2023-04-18T12:50:29.342Z,12.50
2023-04-18T12:52:59.506Z,12.50
2023-04-18T12:55:27.716Z,12.60
2023-04-18T12:57:56.611Z,12.60
2023-04-18T13:00:26.834Z,12.60
2023-04-18T13:02:54.994Z,12.60
2023-04-18T13:05:27.015Z,12.70
2023-04-18T13:08:08.583Z,12.60
2023-04-18T13:10:43.625Z,12.50
2023-04-18T13:13:11.492Z,12.40
2023-04-18T13:15:39.453Z,12.50
2023-04-18T13:18:07.608Z,12.20
2023-04-18T13:20:37.579Z,12.10
2023-04-18T13:23:05.674Z,12.20
2023-04-18T13:25:33.458Z,12.30
2023-04-18T13:28:01.428Z,12.40
2023-04-18T13:30:29.447Z,12.10
2023-04-18T13:32:57.410Z,12.20
2023-04-18T13:35:25.285Z,12.10
2023-04-18T13:37:54.384Z,11.90
2023-04-18T13:40:22.269Z,11.90
2023-04-18T13:42:50.151Z,12.00
2023-04-18T13:45:18.025Z,12.00
2023-04-18T13:47:45.799Z,11.90
2023-04-18T13:50:13.777Z,11.80
2023-04-18T13:52:41.594Z,11.80
2023-04-18T13:55:12.290Z,11.70
2023-04-18T13:57:41.051Z,11.60
2023-04-18T14:00:13.562Z,11.40
2023-04-18T14:02:41.649Z,11.30
2023-04-18T14:05:10.633Z,11.30
2023-04-18T14:07:39.127Z,11.30
2023-04-18T14:10:08.035Z,11.10
2023-04-18T14:12:37.438Z,11.00
2023-04-18T14:15:06.164Z,10.80
2023-04-18T14:17:34.110Z,10.80
2023-04-18T14:20:02.270Z,10.80
2023-04-18T14:22:30.161Z,10.90
2023-04-18T14:24:58.016Z,10.90
2023-04-18T14:27:26.123Z,10.80
2023-04-18T14:29:55.366Z,10.70
2023-04-18T14:32:23.183Z,10.70
2023-04-18T14:34:50.968Z,10.70
2023-04-18T14:37:18.767Z,10.70
2023-04-18T14:39:46.838Z,10.80
2023-04-18T14:42:14.758Z,10.80
2023-04-18T14:44:42.682Z,10.90
2023-04-18T14:47:11.933Z,10.90
2023-04-18T14:49:39.774Z,10.80
2023-04-18T14:52:07.549Z,10.80
2023-04-18T14:54:35.406Z,10.80
2023-04-18T14:57:03.181Z,10.70
2023-04-18T14:59:31.340Z,10.70
2023-04-18T15:01:59.184Z,10.70
2023-04-18T15:04:28.593Z,10.60
2023-04-18T15:06:56.498Z,10.50
2023-04-18T15:09:24.338Z,10.50
2023-04-18T15:11:52.229Z,10.30
2023-04-18T15:14:20.013Z,10.10
2023-04-18T15:16:50.538Z,10.20
2023-04-18T15:19:18.486Z,10.10
2023-04-18T15:21:47.572Z,10.20
2023-04-18T15:24:15.757Z,10.10
2023-04-18T15:26:43.781Z,10.00
2023-04-18T15:29:11.570Z,10.10
2023-04-18T15:31:39.477Z,10.00
2023-04-18T15:34:08.203Z,9.90
2023-04-18T15:36:36.754Z,9.90
2023-04-18T15:39:06.600Z,9.90
2023-04-18T15:41:36.789Z,9.80
2023-04-18T15:44:07.704Z,9.80
2023-04-18T15:46:36.224Z,9.70
2023-04-18T15:49:04.005Z,9.70
2023-04-18T15:51:31.826Z,9.70
2023-04-18T15:53:59.685Z,9.80
2023-04-18T15:56:29.663Z,9.90
2023-04-18T15:58:58.896Z,9.90
2023-04-18T16:01:27.278Z,9.90
2023-04-18T16:03:55.265Z,10.10
2023-04-18T16:06:23.433Z,10.00
2023-04-18T16:08:51.375Z,10.00
2023-04-18T16:11:21.149Z,10.00
2023-04-18T16:13:50.588Z,10.00
2023-04-18T16:16:18.371Z,10.10
2023-04-18T16:18:46.214Z,10.20
2023-04-18T16:21:15.007Z,10.10
2023-04-18T16:23:44.577Z,10.10
2023-04-18T16:26:14.729Z,10.20
2023-04-18T16:28:45.620Z,10.00
2023-04-18T16:31:16.159Z,10.00
2023-04-18T16:33:45.247Z,10.00
2023-04-18T16:36:15.627Z,10.00
2023-04-18T16:38:45.695Z,10.10
2023-04-18T16:41:13.759Z,10.00
2023-04-18T16:43:41.905Z,10.00
2023-04-18T16:46:11.881Z,9.90
2023-04-18T16:48:41.990Z,10.00
2023-04-18T16:51:10.351Z,10.00
2023-04-18T16:53:38.681Z,10.00
2023-04-18T16:56:07.960Z,10.00
2023-04-18T16:58:36.067Z,10.00
2023-04-18T17:01:05.044Z,10.10
2023-04-18T17:03:33.046Z,10.10
2023-04-18T17:06:02.729Z,10.20
2023-04-18T17:08:33.608Z,10.10
2023-04-18T17:11:03.451Z,10.10
2023-04-18T17:13:32.898Z,10.10
2023-04-18T17:16:01.048Z,10.20
2023-04-18T17:18:29.520Z,10.10
2023-04-18T17:20:57.429Z,10.10
2023-04-18T17:23:26.723Z,10.10
2023-04-18T17:25:54.568Z,10.20
2023-04-18T17:28:23.660Z,10.10
2023-04-18T17:30:51.823Z,10.10
2023-04-18T17:33:19.710Z,10.10
2023-04-18T17:35:48.136Z,10.00
2023-04-18T17:38:16.136Z,10.10
2023-04-18T17:40:45.285Z,10.00
2023-04-18T17:43:13.095Z,10.00
2023-04-18T17:45:41.178Z,9.90
2023-04-18T17:48:12.194Z,9.90
2023-04-18T17:50:42.613Z,9.90
2023-04-18T17:53:12.241Z,9.90
2023-04-18T17:55:41.877Z,9.90
2023-04-18T17:58:11.395Z,9.90
2023-04-18T18:03:09.200Z,9.90
2023-04-18T18:05:37.156Z,9.80
2023-04-18T18:08:05.546Z,9.70
2023-04-18T18:10:33.829Z,9.80
2023-04-18T18:13:01.611Z,9.70
2023-04-18T18:15:30.915Z,9.70
2023-04-18T18:17:58.872Z,9.70
2023-04-18T18:20:27.288Z,9.70
2023-04-18T18:22:55.600Z,9.60
2023-04-18T18:25:23.415Z,9.60
2023-04-18T18:27:51.557Z,9.70
2023-04-18T18:30:19.423Z,9.70
2023-04-18T18:32:49.346Z,9.70
2023-04-18T18:35:17.437Z,9.70
2023-04-18T18:37:45.274Z,9.70
2023-04-18T18:40:14.222Z,9.70
2023-04-18T18:42:42.474Z,9.70
2023-04-18T18:45:11.101Z,9.70
2023-04-18T18:47:40.054Z,9.70
2023-04-18T18:50:10.683Z,9.70
2023-04-18T18:52:40.519Z,9.70
2023-04-18T18:55:09.311Z,9.70
2023-04-18T18:57:37.608Z,9.70
2023-04-18T19:00:09.254Z,9.70
2023-04-18T19:02:37.181Z,9.70
2023-04-18T19:05:05.657Z,9.80
2023-04-18T19:07:34.859Z,9.80
2023-04-18T19:10:02.777Z,9.70
2023-04-18T19:12:30.929Z,9.60
2023-04-18T19:14:58.753Z,9.70
2023-04-18T19:17:27.001Z,9.70
2023-04-18T19:19:57.777Z,9.70
2023-04-18T19:22:25.841Z,9.60
2023-04-18T19:24:55.260Z,9.70
2023-04-18T19:27:23.863Z,9.70
2023-04-18T19:29:51.677Z,9.60
2023-04-18T19:32:19.485Z,9.60
2023-04-18T19:34:47.308Z,9.70
2023-04-18T19:37:15.213Z,9.60
2023-04-18T19:39:43.136Z,9.60
2023-04-18T19:42:12.257Z,9.60
2023-04-18T19:44:40.014Z,9.70
2023-04-18T19:47:07.960Z,9.60
2023-04-18T19:49:35.746Z,9.50
2023-04-18T19:52:03.603Z,9.50
2023-04-18T19:54:33.128Z,9.60
2023-04-18T19:57:01.066Z,9.50
2023-04-18T19:59:30.192Z,9.50
2023-04-18T20:02:00.960Z,9.60
2023-04-18T20:04:31.299Z,9.50
2023-04-18T20:06:59.280Z,9.40
2023-04-18T20:09:27.132Z,9.40
2023-04-18T20:11:55.384Z,9.40
2023-04-18T20:14:23.210Z,9.40
2023-04-18T20:16:52.405Z,9.30
2023-04-18T20:19:20.314Z,9.30
2023-04-18T20:21:48.191Z,9.30
2023-04-18T20:24:16.165Z,9.20
2023-04-18T20:26:43.943Z,9.30
2023-04-18T20:29:11.890Z,9.30
2023-04-18T20:31:42.114Z,9.20
2023-04-18T20:34:11.405Z,9.10
2023-04-18T20:36:41.368Z,9.00
2023-04-18T20:39:09.528Z,9.10
2023-04-18T20:41:37.541Z,9.00
2023-04-18T20:44:06.572Z,9.00
2023-04-18T20:46:34.411Z,9.00
2023-04-18T20:49:02.354Z,9.00
2023-04-18T20:51:31.726Z,9.00
2023-04-18T20:53:59.540Z,9.00
2023-04-18T20:56:27.362Z,9.00
2023-04-18T20:58:55.146Z,9.00
2023-04-18T21:01:23.001Z,9.00
2023-04-18T21:03:50.998Z,9.00
2023-04-18T21:06:19.049Z,8.90
2023-04-18T21:08:48.135Z,8.90
2023-04-18T21:11:16.454Z,8.90
2023-04-18T21:13:44.267Z,8.90
2023-04-18T21:16:12.112Z,8.90
2023-04-18T21:18:39.953Z,9.00
2023-04-18T21:21:08.816Z,8.90
2023-04-18T21:23:42.780Z,8.90
2023-04-18T21:26:14.217Z,9.00
2023-04-18T21:28:59.035Z,8.90
2023-04-18T21:31:27.890Z,8.90
2023-04-18T21:33:56.750Z,8.90
2023-04-18T21:36:26.371Z,9.00
2023-04-18T21:38:55.122Z,8.90
2023-04-18T21:41:25.570Z,8.90
2023-04-18T21:43:53.420Z,8.80
2023-04-18T21:46:21.739Z,8.80
2023-04-18T21:48:49.649Z,8.80
2023-04-18T21:51:18.250Z,8.90
2023-04-18T21:53:46.106Z,8.90
2023-04-18T21:56:14.042Z,8.90
2023-04-18T21:58:43.253Z,8.90
2023-04-18T22:01:11.228Z,8.80
2023-04-18T22:03:39.530Z,8.90
2023-04-18T22:06:07.766Z,8.90
2023-04-18T22:08:35.924Z,8.80
2023-04-18T22:11:04.545Z,8.90
2023-04-18T22:13:33.618Z,8.80
2023-04-18T22:16:03.566Z,8.80
2023-04-18T22:18:33.988Z,8.80
2023-04-18T22:21:02.277Z,8.80
2023-04-18T22:23:31.018Z,8.80
2023-04-18T22:25:58.916Z,8.80
2023-04-18T22:28:27.796Z,8.70
2023-04-18T22:30:55.654Z,8.80
2023-04-18T22:33:25.293Z,8.80
2023-04-18T22:35:54.259Z,8.80
2023-04-18T22:38:22.065Z,8.80
2023-04-18T22:40:49.844Z,8.70
2023-04-18T22:43:22.361Z,8.80
2023-04-18T22:45:50.668Z,8.70
2023-04-18T22:48:18.548Z,8.80
2023-04-18T22:50:47.686Z,8.80
2023-04-18T22:53:15.995Z,8.80
2023-04-18T22:55:45.671Z,8.80
2023-04-18T22:58:13.581Z,8.70
2023-04-18T23:00:41.406Z,8.70
2023-04-18T23:03:09.424Z,8.70
2023-04-18T23:05:37.336Z,8.70
2023-04-18T23:08:07.087Z,8.80
2023-04-18T23:10:35.106Z,8.70
2023-04-18T23:13:02.866Z,8.70
2023-04-18T23:15:30.829Z,8.70
2023-04-18T23:17:58.669Z,8.70
2023-04-18T23:20:26.426Z,8.60
2023-04-18T23:22:55.332Z,8.60
2023-04-18T23:25:24.463Z,8.70
2023-04-18T23:27:52.224Z,8.70
2023-04-18T23:30:20.013Z,8.60
2023-04-18T23:32:47.878Z,8.70
2023-04-18T23:35:15.635Z,8.70
2023-04-18T23:37:43.564Z,8.60
2023-04-18T23:40:11.465Z,8.70
2023-04-18T23:42:40.571Z,8.60
2023-04-18T23:45:09.062Z,8.70
2023-04-18T23:47:36.871Z,8.70
2023-04-18T23:50:05.183Z,8.60
2023-04-18T23:52:33.124Z,8.70
2023-04-18T23:55:01.506Z,8.60
2023-04-18T23:57:29.288Z,8.60
2023-04-18T23:59:58.773Z,8.70
